Pagrindinis puslapis
METAR-TAF:

METAR-TAF

Oro uostai :

Brønnøysund, Norvegija

platuma: 65-28N, ilguma: 012-13E, Aukštis: 0 m

Dabartinis oras

Ataskaita buvo paskelbta 42 minutes, ne 21:50 UTC
Vėjas 8 kt iš Pietų/Pietvakarių, svyruoja nuo Pietryčių ir Šiaurės Vakarų
Temperatūra 17°C
Drėgmė 63%
Slėgis 1009 hPa
Matomumas 10 km arba daugiau
Išsisklaidę debesys ne aukštis 4900 ft
Su prošvaistėmis ne aukštis 6500 ft
Liūtis kaimynystėje,

METAR: ENBN 162150Z 20008KT 140V310 9999 VCSH SCT049 BKN065 17/10 Q1009

Laikas: 00:32 (22:32 UTC)

Prognozė

Ataskaita buvo paskelbta 2 valandos ir 32 minutes, ne 20:00 UTC
Prognozė galioja nuo 16 metu 21 UTC su 17 metu 06 UTC
Vėjas 12 kt iš Rytų/Pietryčių
Matomumas 10 km arba daugiau
Išsisklaidę debesys ne aukštis 3500 ft

TAF: ENBN 162000Z 1621/1706 12012KT 9999 SCT035

Orai ataskaitas ir orų prognozės (METAR, TAF).

turimą stotys yra geltonos ir raudonos taškus žemėlapyje.

Perkelti pele per norėdami pamatyti stoties vardą.

Tada spustelėkite, norėdami matyti oro stebėjimo ir prognozės.

Norėdami pakeisti žemėlapį: spustelėkite ant žalios mygtukų su juodo kryžiaus žemyn,; žalią mygtuką su brūkšneliu, jei norite nutolinti; arba žalių rodyklių gretimoms žemėlapius.


METAR-TAF: